createdAt,value
2019-02-07T00:01:44.976Z,20.57
2019-02-07T00:04:15.895Z,22.97
2019-02-07T00:06:45.700Z,24.43
2019-02-07T00:09:15.720Z,20.97
2019-02-07T00:11:45.989Z,21.13
2019-02-07T00:14:15.920Z,21.07
2019-02-07T00:16:45.806Z,18.73
2019-02-07T00:19:15.662Z,21.47
2019-02-07T00:21:45.528Z,22.63
2019-02-07T00:24:15.324Z,18.43
2019-02-07T00:26:45.551Z,21.80
2019-02-07T00:29:15.411Z,20.07
2019-02-07T00:31:45.370Z,20.73
2019-02-07T00:34:16.134Z,25.40
2019-02-07T00:36:45.985Z,19.37
2019-02-07T00:39:15.770Z,22.97
2019-02-07T00:41:45.554Z,21.77
2019-02-07T00:44:15.343Z,20.93
2019-02-07T00:46:46.094Z,21.63
2019-02-07T00:49:15.890Z,22.10
2019-02-07T00:51:45.686Z,20.10
2019-02-07T00:54:15.850Z,21.40
2019-02-07T00:56:45.630Z,20.40
2019-02-07T00:59:15.425Z,19.27
2019-02-07T01:01:46.334Z,17.70
2019-02-07T01:04:16.208Z,19.43
2019-02-07T01:06:46.156Z,23.57
2019-02-07T01:09:15.956Z,21.23
2019-02-07T01:11:45.811Z,20.30
2019-02-07T01:14:15.597Z,22.37
2019-02-07T01:16:45.371Z,26.47
2019-02-07T01:19:15.169Z,23.30
2019-02-07T01:21:45.600Z,21.70
2019-02-07T01:24:15.377Z,19.50
2019-02-07T01:26:45.168Z,24.53
2019-02-07T01:29:14.946Z,23.03
2019-02-07T01:31:44.747Z,22.03
2019-02-07T01:34:14.547Z,24.43
2019-02-07T01:36:45.421Z,25.67
2019-02-07T01:39:15.271Z,24.27
2019-02-07T01:41:45.074Z,23.13
2019-02-07T01:44:14.855Z,21.03
2019-02-07T01:46:44.644Z,22.53
2019-02-07T01:49:14.426Z,24.60
2019-02-07T01:51:44.496Z,26.57
2019-02-07T01:54:14.282Z,24.87
2019-02-07T01:56:44.072Z,23.93
2019-02-07T01:59:13.916Z,25.07
2019-02-07T02:01:43.735Z,25.53
2019-02-07T02:04:13.516Z,23.70
2019-02-07T02:06:43.309Z,25.10
2019-02-07T02:09:13.341Z,19.77
2019-02-07T02:11:43.118Z,27.60
2019-02-07T02:14:14.019Z,23.93
2019-02-07T02:16:46.523Z,24.20
2019-02-07T02:19:16.675Z,24.83
2019-02-07T02:21:46.458Z,26.83
2019-02-07T02:24:16.243Z,26.40
2019-02-07T02:26:46.018Z,24.90
2019-02-07T02:29:16.159Z,25.07
2019-02-07T02:31:46.004Z,23.27
2019-02-07T02:34:16.077Z,24.90
2019-02-07T02:36:45.848Z,21.40
2019-02-07T02:39:15.644Z,25.27
2019-02-07T02:41:45.430Z,28.27
2019-02-07T02:44:15.219Z,24.53
2019-02-07T02:46:45.243Z,26.13
2019-02-07T02:49:15.114Z,30.53
2019-02-07T02:51:44.882Z,25.97
2019-02-07T02:54:31.675Z,28.60
2019-02-07T02:57:01.459Z,24.80
2019-02-07T02:59:31.795Z,27.00
2019-02-07T03:02:06.060Z,28.87
2019-02-07T03:04:37.498Z,24.10
2019-02-07T03:07:14.836Z,27.40
2019-02-07T03:10:02.675Z,25.27
2019-02-07T03:12:43.360Z,24.30
2019-02-07T03:15:15.035Z,26.47
2019-02-07T03:17:52.408Z,29.00
2019-02-07T03:20:23.840Z,24.67
2019-02-07T03:22:57.947Z,25.97
2019-02-07T03:25:31.850Z,24.13
2019-02-07T03:28:13.003Z,27.07
2019-02-07T03:30:47.159Z,24.93
2019-02-07T03:33:34.585Z,23.33
2019-02-07T03:36:09.086Z,26.63
2019-02-07T03:38:46.346Z,25.33
2019-02-07T03:41:20.503Z,25.67
2019-02-07T03:43:57.852Z,20.47
2019-02-07T03:46:35.099Z,26.43
2019-02-07T03:49:06.695Z,24.17
2019-02-07T03:51:50.465Z,26.07
2019-02-07T03:54:38.242Z,24.50
2019-02-07T03:57:09.679Z,21.63
2019-02-07T03:59:50.153Z,26.33
2019-02-07T04:02:36.809Z,23.77
2019-02-07T04:05:25.767Z,22.77
2019-02-07T04:07:57.209Z,28.13
2019-02-07T04:10:34.391Z,26.30
2019-02-07T04:13:06.256Z,21.17
2019-02-07T04:15:37.681Z,25.00
2019-02-07T04:18:11.565Z,24.40
2019-02-07T04:20:48.959Z,22.93
2019-02-07T04:23:23.327Z,21.87
2019-02-07T04:26:09.736Z,26.13
2019-02-07T04:28:43.871Z,25.80
2019-02-07T04:31:24.163Z,24.63
2019-02-07T04:33:58.348Z,19.50
2019-02-07T04:36:38.648Z,23.90
2019-02-07T04:39:22.598Z,21.70
2019-02-07T04:41:54.026Z,22.40
2019-02-07T04:44:25.493Z,22.17
2019-02-07T04:47:02.523Z,24.23
2019-02-07T04:49:49.942Z,23.17
2019-02-07T04:52:21.397Z,23.80
2019-02-07T04:55:09.095Z,23.30
2019-02-07T04:57:40.887Z,21.63
2019-02-07T05:00:21.455Z,22.73
2019-02-07T05:02:55.587Z,22.60
2019-02-07T05:05:32.750Z,20.33
2019-02-07T05:08:07.487Z,20.80
2019-02-07T05:10:57.075Z,21.87
2019-02-07T05:13:40.634Z,21.00
2019-02-07T05:16:19.043Z,21.23
2019-02-07T05:19:08.761Z,20.67
2019-02-07T05:21:45.833Z,19.57
2019-02-07T05:24:19.802Z,18.30
2019-02-07T05:27:06.268Z,17.63
2019-02-07T05:29:37.703Z,19.90
2019-02-07T05:32:26.370Z,21.50
2019-02-07T05:34:57.791Z,19.57
2019-02-07T05:37:29.230Z,20.53
2019-02-07T05:40:00.763Z,20.50
2019-02-07T05:42:38.439Z,19.20
2019-02-07T05:45:28.842Z,18.87
2019-02-07T05:48:16.563Z,16.80
2019-02-07T05:50:50.898Z,19.27
2019-02-07T05:53:27.884Z,17.80
2019-02-07T05:55:59.335Z,20.47
2019-02-07T05:58:42.627Z,16.93
2019-02-07T06:01:30.163Z,16.50
2019-02-07T06:04:04.571Z,15.20
2019-02-07T06:06:44.969Z,16.63
2019-02-07T06:09:28.453Z,18.03
2019-02-07T06:12:09.127Z,18.17
2019-02-07T06:14:40.941Z,19.33
2019-02-07T06:17:28.831Z,18.83
2019-02-07T06:20:15.311Z,17.40
2019-02-07T06:22:49.924Z,18.77
2019-02-07T06:25:37.591Z,17.17
2019-02-07T06:28:12.178Z,16.43
2019-02-07T06:30:43.610Z,17.67
2019-02-07T06:33:20.535Z,16.57
2019-02-07T06:36:01.195Z,16.90
2019-02-07T06:38:38.983Z,15.97
2019-02-07T06:41:16.372Z,16.23
2019-02-07T06:43:47.792Z,18.07
2019-02-07T06:46:28.121Z,17.07
2019-02-07T06:49:05.530Z,15.27
2019-02-07T06:51:45.864Z,15.00
2019-02-07T06:54:20.036Z,15.70
2019-02-07T06:57:03.272Z,15.47
2019-02-07T06:59:34.700Z,17.33
2019-02-07T07:02:06.359Z,16.27
2019-02-07T07:04:49.470Z,15.00
2019-02-07T07:07:36.954Z,15.90
2019-02-07T07:10:27.662Z,19.07
2019-02-07T07:12:59.100Z,17.87
2019-02-07T07:15:47.112Z,16.73
2019-02-07T07:21:10.649Z,16.00
2019-02-07T07:23:54.026Z,16.57
2019-02-07T07:26:31.384Z,15.27
2019-02-07T07:29:11.793Z,17.63
2019-02-07T07:31:59.735Z,18.93
2019-02-07T07:34:31.172Z,19.33
2019-02-07T07:37:02.599Z,17.73
2019-02-07T07:39:46.427Z,16.00
2019-02-07T07:42:26.859Z,18.47
2019-02-07T07:45:13.360Z,16.53
2019-02-07T07:47:47.510Z,17.00
2019-02-07T07:50:18.966Z,17.50
2019-02-07T07:53:06.802Z,16.03
2019-02-07T07:55:47.436Z,19.93
2019-02-07T07:58:35.181Z,18.93
2019-02-07T08:01:13.422Z,19.43
2019-02-07T08:03:47.619Z,16.27
2019-02-07T08:06:34.477Z,15.13
2019-02-07T08:09:14.756Z,14.87
2019-02-07T08:11:52.175Z,15.50
2019-02-07T08:14:26.900Z,13.93
2019-02-07T08:17:01.164Z,15.63
2019-02-07T08:19:48.844Z,15.30
2019-02-07T08:22:36.444Z,13.97
2019-02-07T08:25:14.598Z,13.73
2019-02-07T08:27:51.774Z,13.37
2019-02-07T08:30:41.515Z,13.43
2019-02-07T08:33:15.756Z,11.87
2019-02-07T08:36:05.858Z,11.17
2019-02-07T08:38:42.915Z,12.67
2019-02-07T08:41:30.434Z,10.53
2019-02-07T08:44:13.965Z,10.97
2019-02-07T08:46:46.962Z,10.37
2019-02-07T08:49:24.411Z,12.13
2019-02-07T08:52:04.763Z,6.70
2019-02-07T08:54:48.160Z,9.23
2019-02-07T08:57:19.596Z,6.93
2019-02-07T08:59:54.393Z,7.60
2019-02-07T09:02:34.834Z,7.03
2019-02-07T09:05:14.795Z,8.67
2019-02-07T09:07:46.231Z,8.50
2019-02-07T09:10:20.182Z,7.40
2019-02-07T09:12:57.164Z,6.93
2019-02-07T09:15:31.343Z,5.30
2019-02-07T09:18:18.975Z,3.43
2019-02-07T09:20:56.163Z,3.70
2019-02-07T09:23:27.591Z,4.40
2019-02-07T09:26:15.657Z,5.23
2019-02-07T09:28:47.083Z,4.77
2019-02-07T09:31:33.460Z,4.63
2019-02-07T09:34:08.015Z,6.03
2019-02-07T09:39:33.067Z,6.27
2019-02-07T09:42:20.525Z,5.23
2019-02-07T09:44:57.448Z,8.70
2019-02-07T09:47:44.191Z,10.07
2019-02-07T09:50:27.865Z,11.97
2019-02-07T09:53:08.449Z,17.23
2019-02-07T09:55:39.872Z,14.67
2019-02-07T09:58:11.358Z,14.50
2019-02-07T10:00:43.074Z,12.70
2019-02-07T10:03:17.381Z,11.50
2019-02-07T10:05:57.811Z,12.53
2019-02-07T10:08:35.283Z,15.77
2019-02-07T10:11:12.784Z,10.83
2019-02-07T10:13:44.195Z,16.33
2019-02-07T10:16:15.627Z,13.43
2019-02-07T10:18:47.055Z,20.27
2019-02-07T10:21:24.684Z,19.17
2019-02-07T10:24:12.687Z,15.43
2019-02-07T10:26:59.367Z,12.33
2019-02-07T10:29:48.826Z,18.03
2019-02-07T10:32:26.434Z,20.10
2019-02-07T10:35:04.099Z,19.57
2019-02-07T10:37:47.739Z,18.43
2019-02-07T10:40:25.024Z,17.93
2019-02-07T10:42:56.466Z,15.40
2019-02-07T10:45:34.294Z,15.03
2019-02-07T10:48:19.008Z,9.13
2019-02-07T10:50:53.376Z,6.87
2019-02-07T10:53:24.821Z,6.97
2019-02-07T10:56:08.187Z,10.50
2019-02-07T10:58:48.896Z,7.33
2019-02-07T11:01:20.310Z,9.47
2019-02-07T11:03:57.984Z,8.83
2019-02-07T11:06:29.435Z,10.13
2019-02-07T11:09:19.008Z,11.73
2019-02-07T11:12:07.230Z,17.10
2019-02-07T11:14:47.612Z,16.20
2019-02-07T11:17:35.207Z,14.67
2019-02-07T11:20:25.797Z,16.70
2019-02-07T11:23:02.714Z,14.40
2019-02-07T11:25:46.105Z,15.53
2019-02-07T11:28:17.523Z,15.87
2019-02-07T11:31:04.054Z,15.87
2019-02-07T11:33:39.018Z,18.73
2019-02-07T11:36:19.519Z,15.60
2019-02-07T11:38:53.952Z,17.47
2019-02-07T11:41:31.130Z,17.70
2019-02-07T11:44:18.846Z,22.13
2019-02-07T11:46:51.823Z,19.77
2019-02-07T11:49:26.186Z,20.70
2019-02-07T11:51:57.898Z,22.07
2019-02-07T11:54:29.590Z,15.23
2019-02-07T11:57:01.040Z,21.20
2019-02-07T11:59:35.383Z,21.40
2019-02-07T12:02:13.240Z,13.50
2019-02-07T12:04:44.672Z,13.90
2019-02-07T12:07:18.768Z,18.20
2019-02-07T12:09:56.195Z,14.73
2019-02-07T12:12:33.630Z,19.20
2019-02-07T12:15:06.889Z,11.77
2019-02-07T12:17:57.226Z,13.97
2019-02-07T12:20:34.939Z,19.53
2019-02-07T12:23:21.173Z,15.13
2019-02-07T12:25:52.611Z,11.93
2019-02-07T12:28:26.743Z,17.13
2019-02-07T12:31:01.260Z,31.60
2019-02-07T12:33:49.334Z,15.37
2019-02-07T12:36:32.831Z,17.23
2019-02-07T12:39:19.491Z,8.50
2019-02-07T12:41:57.015Z,14.40
2019-02-07T12:44:40.315Z,12.83
2019-02-07T12:47:30.167Z,15.70
2019-02-07T12:50:10.179Z,9.00
2019-02-07T12:52:44.560Z,13.87
2019-02-07T12:55:31.254Z,7.63
2019-02-07T12:58:08.549Z,13.67
2019-02-07T13:00:43.387Z,13.87
2019-02-07T13:03:14.810Z,9.03
2019-02-07T13:05:52.232Z,16.07
2019-02-07T13:08:26.808Z,14.57
2019-02-07T13:11:10.563Z,11.77
2019-02-07T13:13:58.401Z,10.97
2019-02-07T13:16:32.334Z,12.50
2019-02-07T13:19:10.094Z,13.53
2019-02-07T13:22:00.083Z,14.83
2019-02-07T13:24:31.566Z,10.77
2019-02-07T13:27:03.386Z,14.27
2019-02-07T13:29:37.496Z,15.70
2019-02-07T13:32:25.246Z,14.27
2019-02-07T13:35:05.490Z,12.83
2019-02-07T13:37:36.968Z,14.80
2019-02-07T13:40:11.665Z,12.53
2019-02-07T13:42:52.064Z,16.50
2019-02-07T13:45:33.074Z,11.13
2019-02-07T13:48:07.434Z,10.73
2019-02-07T13:50:41.555Z,13.77
2019-02-07T13:53:18.694Z,8.07
2019-02-07T13:55:50.114Z,8.13
2019-02-07T13:58:36.380Z,8.37
2019-02-07T14:01:14.162Z,12.23
2019-02-07T14:03:57.862Z,11.33
2019-02-07T14:06:35.063Z,10.80
2019-02-07T14:09:18.602Z,14.70
2019-02-07T14:11:50.401Z,7.90
2019-02-07T14:14:21.839Z,10.20
2019-02-07T14:17:11.758Z,10.03
2019-02-07T14:20:03.630Z,10.10
2019-02-07T14:22:47.993Z,5.70
2019-02-07T14:25:34.522Z,11.37
2019-02-07T14:28:15.119Z,13.20
2019-02-07T14:30:55.368Z,12.77
2019-02-07T14:33:32.722Z,9.50
2019-02-07T14:36:09.682Z,7.33
2019-02-07T14:38:57.054Z,7.60
2019-02-07T14:41:46.574Z,9.73
2019-02-07T14:44:34.435Z,7.13
2019-02-07T14:47:04.296Z,10.80
2019-02-07T14:49:34.071Z,12.57
2019-02-07T14:52:04.036Z,9.67
2019-02-07T14:54:33.810Z,10.33
2019-02-07T14:57:03.752Z,8.80
2019-02-07T14:59:33.582Z,9.97
2019-02-07T15:02:03.516Z,7.47
2019-02-07T15:04:33.838Z,6.83
2019-02-07T15:07:03.696Z,7.87
2019-02-07T15:09:33.472Z,10.83
2019-02-07T15:12:03.259Z,7.00
2019-02-07T15:14:33.105Z,7.13
2019-02-07T15:17:02.907Z,7.93
2019-02-07T15:19:33.067Z,9.77
2019-02-07T15:22:02.855Z,10.73
2019-02-07T15:24:32.647Z,10.83
2019-02-07T15:27:02.464Z,9.50
2019-02-07T15:29:32.237Z,9.70
2019-02-07T15:32:02.025Z,10.37
2019-02-07T15:34:32.178Z,9.33
2019-02-07T15:37:01.960Z,14.67
2019-02-07T15:39:51.407Z,12.23
2019-02-07T15:42:21.283Z,11.60
2019-02-07T15:44:52.282Z,7.40
2019-02-07T15:47:22.072Z,9.37
2019-02-07T15:49:51.923Z,4.80
2019-02-07T15:52:21.707Z,10.00
2019-02-07T15:54:51.496Z,13.87
2019-02-07T15:57:22.076Z,10.40
2019-02-07T15:59:52.300Z,8.43
2019-02-07T16:02:22.094Z,6.90
2019-02-07T16:04:51.942Z,9.60
2019-02-07T16:07:21.800Z,15.77
2019-02-07T16:09:51.665Z,7.70
2019-02-07T16:12:21.519Z,13.27
2019-02-07T16:14:51.325Z,7.87
2019-02-07T16:17:21.107Z,7.97
2019-02-07T16:19:50.899Z,9.80
2019-02-07T16:22:21.418Z,8.50
2019-02-07T16:24:51.203Z,7.73
2019-02-07T16:27:21.915Z,6.60
2019-02-07T16:29:51.705Z,8.30
2019-02-07T16:32:21.475Z,6.83
2019-02-07T16:34:51.270Z,8.40
2019-02-07T16:37:21.039Z,7.63
2019-02-07T16:39:52.443Z,7.90
2019-02-07T16:42:22.231Z,12.07
2019-02-07T16:44:52.394Z,9.53
2019-02-07T16:47:22.184Z,11.07
2019-02-07T16:49:52.058Z,11.20
2019-02-07T16:52:21.979Z,10.30
2019-02-07T16:54:52.147Z,9.00
2019-02-07T16:57:21.937Z,10.07
2019-02-07T16:59:51.739Z,9.35
2019-02-07T17:02:23.159Z,11.80
2019-02-07T17:04:53.181Z,9.35
2019-02-07T17:07:22.958Z,8.70
2019-02-07T17:09:53.133Z,9.73
2019-02-07T17:12:23.285Z,79.82
2019-02-07T17:14:54.067Z,35.90
2019-02-07T17:17:23.844Z,25.35
2019-02-07T17:19:53.632Z,9.73
2019-02-07T17:22:23.423Z,11.87
2019-02-07T17:24:53.193Z,7.70
2019-02-07T17:27:22.979Z,7.23
2019-02-07T17:29:53.482Z,9.23
2019-02-07T17:32:23.388Z,12.15
2019-02-07T17:34:53.267Z,9.73
2019-02-07T17:37:23.039Z,14.40
2019-02-07T17:39:52.820Z,10.03
2019-02-07T17:42:23.759Z,10.65
2019-02-07T17:44:53.594Z,9.05
2019-02-07T17:47:23.393Z,11.08
2019-02-07T17:49:54.019Z,13.97
2019-02-07T17:52:24.387Z,9.47
2019-02-07T17:54:54.235Z,13.50
2019-02-07T17:57:25.090Z,10.28
2019-02-07T17:59:54.867Z,14.80
2019-02-07T18:02:24.656Z,11.12
2019-02-07T18:04:54.437Z,11.18
2019-02-07T18:07:24.603Z,11.00
2019-02-07T18:09:54.712Z,8.30
2019-02-07T18:12:24.572Z,9.78
2019-02-07T18:14:54.339Z,9.18
2019-02-07T18:17:24.130Z,8.83
2019-02-07T18:19:53.902Z,8.28
2019-02-07T18:22:23.867Z,9.10
2019-02-07T18:24:53.636Z,10.53
2019-02-07T18:27:23.423Z,11.88
2019-02-07T18:29:53.203Z,7.20
2019-02-07T18:32:22.969Z,9.27
2019-02-07T18:34:52.754Z,8.17
2019-02-07T18:37:22.514Z,6.77
2019-02-07T18:39:52.299Z,11.70
2019-02-07T18:42:22.063Z,10.20
2019-02-07T18:44:51.848Z,10.07
2019-02-07T18:47:21.616Z,7.97
2019-02-07T18:49:51.472Z,8.87
2019-02-07T18:52:21.282Z,8.27
2019-02-07T18:54:51.110Z,11.93
2019-02-07T18:57:20.892Z,11.20
2019-02-07T18:59:52.174Z,5.70
2019-02-07T19:02:22.611Z,8.30
2019-02-07T19:04:52.435Z,7.67
2019-02-07T19:07:22.199Z,8.97
2019-02-07T19:09:51.984Z,7.57
2019-02-07T19:12:21.747Z,6.73
2019-02-07T19:14:51.553Z,24.03
2019-02-07T19:17:21.350Z,9.03
2019-02-07T19:19:51.209Z,8.17
2019-02-07T19:22:20.969Z,8.40
2019-02-07T19:24:51.355Z,16.60
2019-02-07T19:27:21.147Z,7.83
2019-02-07T19:29:50.936Z,4.43
2019-02-07T19:32:20.712Z,9.07
2019-02-07T19:34:50.671Z,6.07
2019-02-07T19:37:20.443Z,5.07
2019-02-07T19:39:50.243Z,5.87
2019-02-07T19:42:21.369Z,4.27
2019-02-07T19:44:51.139Z,7.80
2019-02-07T19:47:20.915Z,6.53
2019-02-07T19:49:50.963Z,7.27
2019-02-07T19:52:21.986Z,4.37
2019-02-07T19:54:51.750Z,3.37
2019-02-07T19:57:21.529Z,6.60
2019-02-07T19:59:51.297Z,4.27
2019-02-07T20:02:21.076Z,5.83
2019-02-07T20:04:51.023Z,4.03
2019-02-07T20:07:20.805Z,7.70
2019-02-07T20:09:50.576Z,8.87
2019-02-07T20:12:20.431Z,15.30
2019-02-07T20:14:51.184Z,7.00
2019-02-07T20:17:20.964Z,7.77
2019-02-07T20:19:51.113Z,5.77
2019-02-07T20:22:20.972Z,8.27
2019-02-07T20:24:50.754Z,6.57
2019-02-07T20:27:20.543Z,5.37
2019-02-07T20:29:50.311Z,6.33
2019-02-07T20:32:20.107Z,4.47
2019-02-07T20:34:49.880Z,6.60
2019-02-07T20:37:20.088Z,3.97
2019-02-07T20:39:49.911Z,5.93
2019-02-07T20:42:19.710Z,10.20
2019-02-07T20:44:49.475Z,6.20
2019-02-07T20:47:19.252Z,3.83
2019-02-07T20:49:49.042Z,8.57
2019-02-07T20:52:19.363Z,10.27
2019-02-07T20:54:49.150Z,5.63
2019-02-07T20:57:18.923Z,5.00
2019-02-07T20:59:48.707Z,9.40
2019-02-07T21:02:18.487Z,10.27
2019-02-07T21:04:48.307Z,9.20
2019-02-07T21:07:18.523Z,7.60
2019-02-07T21:09:48.301Z,7.47
2019-02-07T21:12:18.083Z,6.53
2019-02-07T21:14:47.867Z,10.13
2019-02-07T21:17:17.635Z,8.37
2019-02-07T21:19:47.419Z,8.57
2019-02-07T21:22:18.161Z,13.17
2019-02-07T21:24:47.950Z,6.60
2019-02-07T21:27:17.750Z,7.87
2019-02-07T21:29:47.518Z,7.87
2019-02-07T21:32:17.291Z,7.63
2019-02-07T21:34:47.067Z,6.73
2019-02-07T21:37:16.848Z,6.10
2019-02-07T21:39:46.999Z,9.77
2019-02-07T21:42:17.856Z,7.80
2019-02-07T21:44:47.628Z,10.30
2019-02-07T21:47:17.408Z,5.17
2019-02-07T21:49:47.176Z,9.87
2019-02-07T21:52:18.017Z,3.77
2019-02-07T21:54:48.161Z,3.70
2019-02-07T21:57:18.907Z,4.63
2019-02-07T21:59:48.690Z,7.57
2019-02-07T22:02:18.471Z,7.07
2019-02-07T22:04:48.246Z,7.57
2019-02-07T22:07:18.028Z,9.20
2019-02-07T22:09:48.175Z,5.63
2019-02-07T22:12:17.963Z,7.77
2019-02-07T22:14:47.733Z,7.27
2019-02-07T22:17:17.511Z,9.93
2019-02-07T22:19:47.280Z,6.23
2019-02-07T22:22:17.072Z,5.70
2019-02-07T22:24:46.913Z,7.60
2019-02-07T22:27:16.721Z,6.67
2019-02-07T22:29:46.498Z,5.85
2019-02-07T22:32:16.268Z,8.25
2019-02-07T22:34:46.046Z,9.43
2019-02-07T22:37:15.828Z,5.97
2019-02-07T22:39:45.600Z,6.08
2019-02-07T22:42:15.378Z,11.70
2019-02-07T22:44:45.164Z,8.80
2019-02-07T22:47:14.930Z,6.72
2019-02-07T22:49:44.746Z,6.40
2019-02-07T22:52:14.580Z,8.85
2019-02-07T22:54:44.368Z,6.67
2019-02-07T22:57:14.134Z,5.50
2019-02-07T22:59:43.934Z,11.08
2019-02-07T23:02:14.138Z,5.62
2019-02-07T23:04:43.927Z,6.50
2019-02-07T23:07:13.693Z,5.55
2019-02-07T23:09:43.470Z,13.98
2019-02-07T23:12:13.239Z,8.13
2019-02-07T23:14:43.011Z,8.05
2019-02-07T23:17:12.795Z,10.40
2019-02-07T23:19:42.648Z,7.95
2019-02-07T23:22:12.857Z,8.03
2019-02-07T23:24:42.634Z,6.95
2019-02-07T23:27:12.398Z,8.07
2019-02-07T23:29:42.162Z,3.63
2019-02-07T23:32:11.939Z,8.23
2019-02-07T23:34:41.707Z,13.43
2019-02-07T23:37:12.018Z,5.93
2019-02-07T23:39:41.815Z,10.63
2019-02-07T23:42:11.665Z,6.43
2019-02-07T23:44:41.436Z,7.63
2019-02-07T23:47:11.207Z,6.57
2019-02-07T23:49:42.042Z,8.77
2019-02-07T23:52:12.312Z,10.03
2019-02-07T23:54:42.145Z,6.70
2019-02-07T23:57:11.923Z,7.80
2019-02-07T23:59:41.709Z,8.63
